Mount Pocono, Pennsylvania
Current Conditions -  °F | °C
As of 5:28 PM on Tuesday 21 Oct 2014 (Local Time) from KMPO Reporting Station
Moderate Rain Moderate Rain  
Wind Chill: 53°   Ceiling: 2400
Heat Index: 53°   Visibility: 4mi
Dew Point: 48°   Wind: 5mph
Humidity: 83%   Direction: 330°NNW
Pressure: 29.85"   Gusts: NA
Location:  41.12°N, 75.36°W
Report Text: KMPO 212128Z AUTO 33004KT 4SM RA BKN024 OVC038 12/09 A2985 RMK AO2 RAB13 T01170089 TSNO PNO $
Loading
Personal Weather Stations






























Interactive Weather Map
Tropical Storm Tracking
New forecast layout! Learn more

10-Day Weather Forecast

Advertisements
Track Severe Weather on mobile